Time;durP1;ratioP1;P1;durP2;ratioP2;P2;SDS_P1;SDS_P2;PMS_P1;PMS_P2;Temp;Humidity;BMP_temperature;BMP_pressure;BME280_temperature;BME280_humidity;BME280_pressure;Samples;Min_cycle;Max_cycle;Signal;HPM_P1;HPM_P2
2023/07/02 00:01:28;;;;;;;;;;;;;;;27.31;33.59;100019.19;5055777;28;1910;-35
2023/07/02 00:03:54;;;;;;;;;;;;;;;27.09;33.24;100022.81;5055457;28;1040;-34
2023/07/02 00:06:20;;;;;;;;;;;;;;;27.09;32.82;100027.41;5058831;28;1109;-33
2023/07/02 00:08:45;;;;;;;;;;;;;;;27.04;32.30;100016.38;5059576;28;1222;-33
2023/07/02 00:11:12;;;;;;;;;;;;;;;27.14;33.51;100009.56;5059990;28;1230;-35
2023/07/02 00:13:38;;;;;;;;;;;;;;;27.41;33.60;100002.59;5059682;28;1141;-34
2023/07/02 00:16:04;;;;;;;;;;;;;;;27.56;33.88;100000.53;5059919;28;1134;-34
2023/07/02 00:18:33;;;;;;;;;;;;;;;27.39;34.24;99995.50;5059065;28;1111;-35
2023/07/02 00:21:00;;;;;;;;;;;;;;;27.48;34.76;99996.16;5059587;28;1918;-31
2023/07/02 00:23:26;;;;;;;;;;;;;;;27.63;34.62;99995.16;5059346;28;1153;-33
2023/07/02 00:25:51;;;;;;;;;;;;;;;27.81;34.46;99999.19;5074969;28;1075;-29
2023/07/02 00:28:17;;;;;;;;;;;;;;;27.78;35.31;99991.50;5059624;28;1090;-34
2023/07/02 00:30:43;;;;;;;;;;;;;;;27.75;35.06;99977.34;5058520;28;1024;-34
2023/07/02 00:33:09;;;;;;;;;;;;;;;27.63;35.24;99984.34;5057972;28;1248;-34
2023/07/02 00:35:34;;;;;;;;;;;;;;;27.55;35.68;99979.13;5057307;28;1123;-27
2023/07/02 00:37:59;;;;;;;;;;;;;;;27.67;35.69;99982.91;5058287;28;1257;-34
2023/07/02 00:40:26;;;;;;;;;;;;;;;27.75;35.91;99976.50;5058881;28;1103;-31
2023/07/02 00:42:52;;;;;;;;;;;;;;;28.08;34.95;99980.25;5074427;28;1979;-34
2023/07/02 00:45:17;;;;;;;;;;;;;;;28.18;34.82;99975.25;5057582;28;1020;-32
2023/07/02 00:47:43;;;;;;;;;;;;;;;28.27;34.98;99973.19;5058669;28;1094;-31
2023/07/02 00:50:09;;;;;;;;;;;;;;;28.28;34.93;99982.13;5074183;28;1275;-34
2023/07/02 00:52:35;;;;;;;;;;;;;;;28.44;34.68;99975.47;5057477;28;1250;-34
2023/07/02 00:55:01;;;;;;;;;;;;;;;28.63;34.50;99972.94;5057184;28;1063;-33
2023/07/02 00:57:29;;;;;;;;;;;;;;;28.71;34.42;99972.72;5058693;28;1027;-32
2023/07/02 00:59:56;;;;;;;;;;;;;;;28.73;34.70;99966.03;5058831;28;1016;-30
2023/07/02 01:02:25;;;;;;;;;;;;;;;28.67;34.82;99966.88;5058755;28;1909;-33
2023/07/02 01:04:57;;;;;;;;;;;;;;;28.64;35.50;99969.19;5073606;28;1217;-28
2023/07/02 01:07:23;;;;;;;;;;;;;;;28.71;35.36;99961.88;5070705;28;1637;-33
2023/07/02 01:09:49;;;;;;;;;;;;;;;28.59;35.71;99964.41;5056817;28;1311;-32
2023/07/02 01:12:15;;;;;;;;;;;;;;;28.60;35.53;99966.06;5059041;28;1113;-31
2023/07/02 01:14:44;;;;;;;;;;;;;;;28.57;36.27;99961.09;5058405;28;1171;-32
2023/07/02 01:17:10;;;;;;;;;;;;;;;28.79;35.69;99948.13;5055744;28;1601;-35
2023/07/02 01:19:41;;;;;;;;;;;;;;;28.81;36.00;99956.03;5057023;28;1204;-33
2023/07/02 01:22:07;;;;;;;;;;;;;;;28.62;36.34;99955.88;5058387;28;1977;-31
2023/07/02 01:24:34;;;;;;;;;;;;;;;28.94;35.96;99957.84;5073688;28;1195;-32
2023/07/02 01:27:01;;;;;;;;;;;;;;;28.70;36.57;99952.94;5058510;28;1146;-27
2023/07/02 01:29:28;;;;;;;;;;;;;;;28.26;37.21;99949.06;5056830;28;1064;-30
2023/07/02 01:31:54;;;;;;;;;;;;;;;28.13;37.65;99948.00;5056587;28;1180;-34
2023/07/02 01:34:19;;;;;;;;;;;;;;;28.16;36.99;99949.50;5058163;28;1183;-34
2023/07/02 01:36:45;;;;;;;;;;;;;;;28.35;36.50;99940.53;5056685;28;2055;-34
2023/07/02 01:39:10;;;;;;;;;;;;;;;28.48;36.78;99944.25;5056659;28;1156;-33
2023/07/02 01:41:44;;;;;;;;;;;;;;;28.47;36.53;99946.13;5056822;28;1902;-32
2023/07/02 01:44:10;;;;;;;;;;;;;;;28.51;36.36;99943.00;5057290;28;1054;-34
2023/07/02 01:46:35;;;;;;;;;;;;;;;28.33;37.12;99949.88;5058037;28;1173;-34
2023/07/02 01:49:01;;;;;;;;;;;;;;;28.43;37.33;99958.41;5055939;28;1239;-31
2023/07/02 01:51:26;;;;;;;;;;;;;;;28.51;37.56;99956.53;5057579;28;1123;-31
2023/07/02 01:53:52;;;;;;;;;;;;;;;28.57;36.98;99956.50;5056453;28;1332;-28
2023/07/02 01:56:17;;;;;;;;;;;;;;;28.63;37.13;99945.88;5056071;28;1071;-32
2023/07/02 01:58:44;;;;;;;;;;;;;;;28.48;37.09;99952.34;5056411;28;1194;-34
2023/07/02 02:01:10;;;;;;;;;;;;;;;28.44;38.00;99949.28;5073216;28;1894;-35
2023/07/02 02:03:35;;;;;;;;;;;;;;;28.51;38.66;99941.09;5057008;28;1154;-34
2023/07/02 02:06:01;;;;;;;;;;;;;;;28.56;38.30;99937.78;5073127;28;1263;-27
2023/07/02 02:08:26;;;;;;;;;;;;;;;28.46;39.06;99938.22;5055649;28;1071;-33
2023/07/02 02:10:52;;;;;;;;;;;;;;;28.56;38.78;99933.19;5057493;28;1036;-34
2023/07/02 02:13:17;;;;;;;;;;;;;;;28.50;39.38;99928.63;5056096;28;1163;-34
2023/07/02 02:15:43;;;;;;;;;;;;;;;28.42;39.45;99935.13;5057635;28;1226;-32
2023/07/02 02:18:08;;;;;;;;;;;;;;;28.50;38.83;99928.63;5055920;28;1846;-35
2023/07/02 02:20:34;;;;;;;;;;;;;;;28.36;39.27;99935.97;5072335;28;1159;-35
2023/07/02 02:22:59;;;;;;;;;;;;;;;28.24;39.17;99933.84;5057204;28;1913;-35
2023/07/02 02:25:25;;;;;;;;;;;;;;;28.31;39.28;99933.03;5072724;28;1118;-34
2023/07/02 02:27:50;;;;;;;;;;;;;;;28.41;39.11;99938.03;5056712;28;1090;-32
2023/07/02 02:30:16;;;;;;;;;;;;;;;28.47;38.80;99948.00;5055462;28;1075;-30
2023/07/02 02:32:41;;;;;;;;;;;;;;;28.59;38.83;99949.00;5055446;28;1258;-31
2023/07/02 02:35:09;;;;;;;;;;;;;;;28.65;38.32;99950.03;5055869;28;1163;-34
2023/07/02 02:37:37;;;;;;;;;;;;;;;28.71;38.56;99935.63;5055509;28;1395;-35
2023/07/02 02:40:03;;;;;;;;;;;;;;;28.67;38.75;99939.84;5072112;28;1342;-32
2023/07/02 02:42:29;;;;;;;;;;;;;;;28.65;38.56;99936.50;5072043;28;1902;-34
2023/07/02 02:44:55;;;;;;;;;;;;;;;28.64;39.21;99947.53;5055417;28;1140;-33
2023/07/02 02:47:20;;;;;;;;;;;;;;;28.74;38.80;99942.50;5056837;28;1163;-32
2023/07/02 02:49:46;;;;;;;;;;;;;;;28.71;39.35;99940.25;5071537;28;1126;-32
2023/07/02 02:52:14;;;;;;;;;;;;;;;28.79;38.84;99941.88;5056704;28;1150;-34
2023/07/02 02:54:39;;;;;;;;;;;;;;;28.71;39.66;99942.94;5056699;28;1058;-30
2023/07/02 02:57:05;;;;;;;;;;;;;;;28.67;39.73;99945.25;5071284;28;1146;-33
2023/07/02 02:59:30;;;;;;;;;;;;;;;28.71;39.91;99934.81;5056513;28;1036;-34
2023/07/02 03:01:56;;;;;;;;;;;;;;;28.81;39.28;99937.06;5054979;28;1975;-29
2023/07/02 03:04:24;;;;;;;;;;;;;;;28.80;39.93;99938.94;5056482;28;1247;-35
2023/07/02 03:06:51;;;;;;;;;;;;;;;28.75;40.09;99938.75;5056363;28;1095;-30
2023/07/02 03:09:17;;;;;;;;;;;;;;;28.90;39.26;99946.59;5056199;28;888;-34
2023/07/02 03:11:43;;;;;;;;;;;;;;;28.78;39.98;99946.44;5054815;28;1127;-28
2023/07/02 03:14:09;;;;;;;;;;;;;;;28.77;40.08;99942.09;5056559;28;1059;-30
2023/07/02 03:16:34;;;;;;;;;;;;;;;28.69;40.86;99940.47;5056154;28;1175;-33
2023/07/02 03:19:00;;;;;;;;;;;;;;;28.92;40.19;99943.69;5055969;28;1050;-35
2023/07/02 03:21:25;;;;;;;;;;;;;;;28.52;40.59;99947.34;5055136;28;1898;-34
2023/07/02 03:23:51;;;;;;;;;;;;;;;28.27;41.00;99948.00;5056324;28;1047;-29
2023/07/02 03:26:16;;;;;;;;;;;;;;;28.23;41.29;99953.84;5055951;28;1063;-33
2023/07/02 03:28:42;;;;;;;;;;;;;;;28.26;40.37;99959.88;5056165;28;1079;-33
2023/07/02 03:31:07;;;;;;;;;;;;;;;28.45;39.87;99958.19;5055694;28;1123;-27
2023/07/02 03:33:33;;;;;;;;;;;;;;;28.66;39.83;99957.09;5055953;28;952;-34
2023/07/02 03:35:58;;;;;;;;;;;;;;;28.55;40.78;99964.00;5042247;28;1464;-32
2023/07/02 03:38:24;;;;;;;;;;;;;;;28.39;41.84;99961.75;5056102;28;1165;-34
2023/07/02 03:40:49;;;;;;;;;;;;;;;28.22;42.59;99968.41;5055394;28;1898;-33
2023/07/02 03:43:15;;;;;;;;;;;;;;;28.31;43.14;99970.91;5056055;28;1114;-34
2023/07/02 03:45:40;;;;;;;;;;;;;;;27.77;45.29;99966.31;5055655;28;896;-34
2023/07/02 03:48:06;;;;;;;;;;;;;;;27.83;45.38;99962.78;5055802;28;1158;-36
2023/07/02 03:50:31;;;;;;;;;;;;;;;27.58;47.44;99970.63;5055241;28;1043;-35
2023/07/02 03:52:57;;;;;;;;;;;;;;;27.54;47.04;99972.94;5055653;28;1071;-37
2023/07/02 03:55:23;;;;;;;;;;;;;;;27.62;46.22;99971.88;5055566;28;1047;-36
2023/07/02 03:57:48;;;;;;;;;;;;;;;27.82;45.48;99965.69;5055679;28;911;-38
2023/07/02 04:00:14;;;;;;;;;;;;;;;27.80;43.36;99967.78;5055564;28;1154;-37
2023/07/02 04:02:42;;;;;;;;;;;;;;;24.73;47.48;99959.44;5055666;28;1983;-32
2023/07/02 04:05:07;;;;;;;;;;;;;;;24.25;48.28;99961.47;5055866;28;1020;-38
2023/07/02 04:07:33;;;;;;;;;;;;;;;24.19;49.27;99963.03;5056016;28;1133;-39
2023/07/02 04:09:59;;;;;;;;;;;;;;;26.14;45.16;99968.22;5054950;28;1394;-35
2023/07/02 04:12:24;;;;;;;;;;;;;;;27.06;43.18;99961.13;5055689;28;1063;-34
2023/07/02 04:14:50;;;;;;;;;;;;;;;27.51;41.19;99970.59;5055583;28;1102;-33
2023/07/02 04:17:15;;;;;;;;;;;;;;;27.75;40.15;99969.25;5055868;28;1107;-35
2023/07/02 04:19:41;;;;;;;;;;;;;;;27.69;40.68;99963.81;5055655;28;1098;-35
2023/07/02 04:22:06;;;;;;;;;;;;;;;27.81;39.87;99964.84;5054961;28;1963;-35
2023/07/02 04:24:32;;;;;;;;;;;;;;;27.83;39.39;99961.94;5055352;28;1253;-35
2023/07/02 04:26:59;;;;;;;;;;;;;;;27.47;41.82;99970.22;5055685;28;1146;-33
2023/07/02 04:29:25;;;;;;;;;;;;;;;27.55;41.64;99974.56;5055554;28;1056;-34
2023/07/02 04:31:50;;;;;;;;;;;;;;;27.02;44.26;99968.84;5055492;28;1126;-33
2023/07/02 04:34:16;;;;;;;;;;;;;;;27.46;42.16;99968.53;5054934;28;1122;-32
2023/07/02 04:36:41;;;;;;;;;;;;;;;27.85;40.65;99962.59;5055241;28;1133;-31
2023/07/02 04:39:08;;;;;;;;;;;;;;;27.72;40.39;99966.13;5055186;28;1155;-35
2023/07/02 04:41:33;;;;;;;;;;;;;;;27.62;40.51;99975.44;5055746;28;2050;-33
2023/07/02 04:43:59;;;;;;;;;;;;;;;27.71;39.80;99967.97;5055333;28;1074;-33
2023/07/02 04:46:24;;;;;;;;;;;;;;;27.71;40.01;99977.97;5055170;28;856;-32
2023/07/02 04:48:50;;;;;;;;;;;;;;;27.43;40.87;99977.03;5055428;28;1175;-34
2023/07/02 04:51:15;;;;;;;;;;;;;;;27.21;42.34;99977.19;5056879;28;1118;-35
2023/07/02 04:53:41;;;;;;;;;;;;;;;27.16;42.62;99978.84;5058529;28;1059;-34
2023/07/02 04:56:06;;;;;;;;;;;;;;;27.12;42.16;99981.94;5058612;28;1074;-33
2023/07/02 04:58:32;;;;;;;;;;;;;;;27.53;40.57;99989.34;5058507;28;926;-35
2023/07/02 05:00:57;;;;;;;;;;;;;;;27.63;39.81;99987.06;5059117;28;1914;-34
2023/07/02 05:03:23;;;;;;;;;;;;;;;27.68;39.35;99987.31;5058558;28;1132;-33
2023/07/02 05:05:48;;;;;;;;;;;;;;;27.64;39.27;99983.34;5058270;28;1083;-34
2023/07/02 05:08:14;;;;;;;;;;;;;;;27.57;39.36;99995.97;5058285;28;1139;-35
2023/07/02 05:10:39;;;;;;;;;;;;;;;27.54;40.01;99991.00;5057929;28;845;-30
2023/07/02 05:13:05;;;;;;;;;;;;;;;27.15;41.36;99994.19;5058251;28;1091;-33
2023/07/02 05:15:30;;;;;;;;;;;;;;;27.59;40.14;99988.50;5058717;28;1162;-35
2023/07/02 05:17:56;;;;;;;;;;;;;;;27.51;39.78;99981.41;5058388;28;1086;-34
2023/07/02 05:20:21;;;;;;;;;;;;;;;27.45;39.77;99977.69;5058586;28;1468;-30
2023/07/02 05:22:47;;;;;;;;;;;;;;;27.37;39.97;99981.41;5057526;28;1898;-35
2023/07/02 05:25:12;;;;;;;;;;;;;;;27.43;39.82;99984.31;5058101;28;1163;-34
2023/07/02 05:27:38;;;;;;;;;;;;;;;27.28;40.96;99988.00;5058194;28;1082;-28
2023/07/02 05:30:04;;;;;;;;;;;;;;;27.10;41.38;99994.81;5058249;28;1098;-35
2023/07/02 05:32:29;;;;;;;;;;;;;;;27.14;41.67;99993.34;5058612;28;1179;-36
2023/07/02 05:34:55;;;;;;;;;;;;;;;27.17;41.44;99999.41;5057751;28;889;-35
2023/07/02 05:37:20;;;;;;;;;;;;;;;27.45;40.29;100003.84;5056468;28;1149;-29
2023/07/02 05:39:46;;;;;;;;;;;;;;;27.50;39.16;100004.91;5057931;28;1155;-33
2023/07/02 05:42:11;;;;;;;;;;;;;;;27.42;39.26;100001.56;5057863;28;1981;-34
2023/07/02 05:44:37;;;;;;;;;;;;;;;27.36;39.62;99995.94;5058071;28;1090;-37
2023/07/02 05:47:02;;;;;;;;;;;;;;;27.49;39.16;99997.00;5057569;28;960;-33
2023/07/02 05:49:28;;;;;;;;;;;;;;;27.47;39.70;100004.47;5057906;28;1161;-33
2023/07/02 05:51:53;;;;;;;;;;;;;;;27.16;40.63;99995.84;5057714;28;1046;-33
2023/07/02 05:54:19;;;;;;;;;;;;;;;27.46;40.17;100000.94;5057902;28;1222;-34
2023/07/02 05:56:44;;;;;;;;;;;;;;;27.58;39.31;100000.34;5057635;28;1218;-28
2023/07/02 05:59:11;;;;;;;;;;;;;;;27.26;39.67;100004.41;5057556;28;885;-34
2023/07/02 06:01:36;;;;;;;;;;;;;;;27.63;39.44;100000.56;5057182;28;1910;-29
2023/07/02 06:04:02;;;;;;;;;;;;;;;27.49;39.39;99997.81;5056977;28;1235;-30
2023/07/02 06:06:27;;;;;;;;;;;;;;;27.51;40.10;99986.81;5057268;28;1102;-36
2023/07/02 06:08:53;;;;;;;;;;;;;;;27.25;41.07;99983.00;5057432;28;1075;-35
2023/07/02 06:11:18;;;;;;;;;;;;;;;27.33;41.15;99982.84;5056869;28;933;-35
2023/07/02 06:13:44;;;;;;;;;;;;;;;27.59;40.14;99983.09;5057542;28;1179;-34
2023/07/02 06:16:09;;;;;;;;;;;;;;;27.66;39.64;99983.13;5056811;28;1082;-34
2023/07/02 06:18:35;;;;;;;;;;;;;;;27.51;39.62;99979.56;5057752;28;1114;-31
2023/07/02 06:21:00;;;;;;;;;;;;;;;27.62;39.69;99980.84;5056812;28;1902;-32
2023/07/02 06:23:26;;;;;;;;;;;;;;;27.43;39.64;99978.91;5057042;28;978;-34
2023/07/02 06:25:58;;;;;;;;;;;;;;;27.59;39.69;99988.50;5057183;28;1417;-35
2023/07/02 06:28:25;;;;;;;;;;;;;;;27.65;40.15;99989.53;5057236;28;1082;-34
2023/07/02 06:30:50;;;;;;;;;;;;;;;27.80;40.14;99978.59;5057106;28;1184;-34
2023/07/02 06:33:16;;;;;;;;;;;;;;;27.80;39.55;99979.44;5056459;28;1074;-29
2023/07/02 06:35:41;;;;;;;;;;;;;;;27.68;39.27;99986.44;5056909;28;1120;-32
2023/07/02 06:38:07;;;;;;;;;;;;;;;27.58;39.34;99984.97;5056694;28;1079;-29
2023/07/02 06:40:32;;;;;;;;;;;;;;;27.43;39.58;99982.44;5056997;28;1194;-35
2023/07/02 06:42:58;;;;;;;;;;;;;;;27.53;39.58;99979.34;5057043;28;1917;-32
2023/07/02 06:45:23;;;;;;;;;;;;;;;27.49;39.51;99981.63;5056196;28;1096;-35
2023/07/02 06:47:49;;;;;;;;;;;;;;;27.49;39.59;99978.91;5056586;28;1098;-35
2023/07/02 06:50:15;;;;;;;;;;;;;;;27.42;40.39;99982.66;5056380;28;1126;-34
2023/07/02 06:52:40;;;;;;;;;;;;;;;27.38;40.71;99985.75;5056520;28;1112;-36
2023/07/02 06:55:06;;;;;;;;;;;;;;;27.71;40.31;99984.19;5056385;28;1175;-35
2023/07/02 06:57:31;;;;;;;;;;;;;;;27.60;40.04;99982.06;5056380;28;1167;-37
2023/07/02 06:59:59;;;;;;;;;;;;;;;27.56;39.80;99989.75;5056278;28;1019;-35
2023/07/02 07:02:24;;;;;;;;;;;;;;;27.59;39.60;99983.91;5056595;28;1906;-35
2023/07/02 07:04:50;;;;;;;;;;;;;;;27.61;39.75;99987.25;5056207;28;1122;-33
2023/07/02 07:07:15;;;;;;;;;;;;;;;27.52;40.08;99985.78;5056188;28;1130;-34
2023/07/02 07:09:41;;;;;;;;;;;;;;;27.54;40.43;99985.59;5055907;28;1150;-35
2023/07/02 07:12:06;;;;;;;;;;;;;;;27.63;40.21;99996.00;5056351;28;1090;-32
2023/07/02 07:14:32;;;;;;;;;;;;;;;27.59;40.48;99985.81;5055157;28;1082;-38
2023/07/02 07:16:57;;;;;;;;;;;;;;;27.55;39.90;99982.69;5056513;28;1198;-36
2023/07/02 07:19:23;;;;;;;;;;;;;;;27.39;39.32;99981.19;5055649;28;1063;-34
2023/07/02 07:21:48;;;;;;;;;;;;;;;27.37;39.49;99986.81;5054844;28;1914;-36
2023/07/02 07:24:14;;;;;;;;;;;;;;;27.42;39.29;99975.38;5055877;28;1051;-34
2023/07/02 07:26:39;;;;;;;;;;;;;;;27.35;39.34;99980.78;5056292;28;1070;-36
2023/07/02 07:29:05;;;;;;;;;;;;;;;27.32;39.63;99974.94;5055869;28;1114;-35
2023/07/02 07:31:30;;;;;;;;;;;;;;;27.00;41.04;99978.97;5071621;28;1170;-34
2023/07/02 07:33:56;;;;;;;;;;;;;;;26.98;41.12;99975.63;5055831;28;1079;-34
2023/07/02 07:36:21;;;;;;;;;;;;;;;27.27;40.40;99972.84;5056123;28;1147;-35
2023/07/02 07:38:47;;;;;;;;;;;;;;;27.41;39.71;99968.31;5056115;28;1117;-33
2023/07/02 07:41:12;;;;;;;;;;;;;;;27.34;38.94;99959.38;5055842;28;1979;-35
2023/07/02 07:43:37;;;;;;;;;;;;;;;27.32;39.07;99964.97;5055852;28;1086;-33
2023/07/02 07:46:03;;;;;;;;;;;;;;;27.48;38.84;99958.34;5055822;28;1046;-35
2023/07/02 07:48:28;;;;;;;;;;;;;;;27.35;39.28;99961.03;5056016;28;1109;-34
2023/07/02 07:50:54;;;;;;;;;;;;;;;27.31;39.96;99967.88;5042456;28;1020;-34
2023/07/02 07:53:19;;;;;;;;;;;;;;;27.22;40.70;99965.38;5055827;28;1127;-35
2023/07/02 07:55:45;;;;;;;;;;;;;;;27.47;40.24;99963.97;5056318;28;1135;-34
2023/07/02 07:58:10;;;;;;;;;;;;;;;27.33;40.08;99965.78;5071171;28;1146;-35
2023/07/02 08:00:37;;;;;;;;;;;;;;;27.22;40.45;99967.22;5055731;28;1035;-35
2023/07/02 08:03:03;;;;;;;;;;;;;;;27.25;39.84;99959.56;5055305;28;1921;-33
2023/07/02 08:05:29;;;;;;;;;;;;;;;27.16;40.31;99965.34;5055901;28;1234;-36
2023/07/02 08:07:54;;;;;;;;;;;;;;;27.22;39.86;99964.53;5056012;28;1143;-37
2023/07/02 08:10:20;;;;;;;;;;;;;;;27.27;39.75;99972.84;5055642;28;999;-34
2023/07/02 08:12:47;;;;;;;;;;;;;;;27.24;39.93;99971.38;5055766;28;1214;-32
2023/07/02 08:15:12;;;;;;;;;;;;;;;27.08;40.24;99969.88;5055929;28;1178;-36
2023/07/02 08:17:38;;;;;;;;;;;;;;;26.95;40.67;99980.56;5055438;28;1074;-35
2023/07/02 08:20:09;;;;;;;;;;;;;;;26.93;40.69;99966.44;5055172;28;1047;-34
2023/07/02 08:22:36;;;;;;;;;;;;;;;27.00;40.77;99962.75;5055546;28;1909;-35
2023/07/02 08:25:02;;;;;;;;;;;;;;;27.22;39.28;99962.66;5055983;28;1063;-36
2023/07/02 08:27:27;;;;;;;;;;;;;;;27.41;39.05;99970.19;5059242;28;1183;-36
2023/07/02 08:29:53;;;;;;;;;;;;;;;27.41;39.41;99962.91;5050168;28;1269;-36
2023/07/02 08:32:18;;;;;;;;;;;;;;;27.24;40.24;99952.47;5041453;28;1293;-35
2023/07/02 08:34:44;;;;;;;;;;;;;;;27.22;40.54;99948.31;5057475;28;1091;-34
2023/07/02 08:37:09;;;;;;;;;;;;;;;27.16;40.86;99954.53;5058934;28;1126;-33
2023/07/02 08:39:37;;;;;;;;;;;;;;;27.16;40.63;99957.25;5059377;28;1102;-38
2023/07/02 08:42:02;;;;;;;;;;;;;;;27.51;40.04;99957.94;5052560;28;1909;-36
2023/07/02 08:44:28;;;;;;;;;;;;;;;27.68;39.89;99952.19;5074561;28;1114;-36
2023/07/02 08:46:56;;;;;;;;;;;;;;;27.44;40.17;99961.69;5074707;28;1230;-35
2023/07/02 08:49:21;;;;;;;;;;;;;;;27.81;39.31;99974.88;5059054;28;1170;-33
2023/07/02 08:51:47;;;;;;;;;;;;;;;27.81;39.89;99972.97;5059499;28;853;-34
2023/07/02 08:54:12;;;;;;;;;;;;;;;27.87;40.16;99974.88;5059354;28;1133;-36
2023/07/02 08:56:38;;;;;;;;;;;;;;;28.01;39.72;99976.75;5058702;28;1114;-35
2023/07/02 08:59:06;;;;;;;;;;;;;;;27.68;39.84;99973.78;5057337;28;1144;-34
2023/07/02 09:01:31;;;;;;;;;;;;;;;27.57;40.31;99972.50;5074089;28;1902;-35
2023/07/02 09:04:02;;;;;;;;;;;;;;;27.78;40.17;99977.97;5058759;28;1088;-34
2023/07/02 09:06:29;;;;;;;;;;;;;;;27.93;39.62;99984.00;5058706;28;1055;-35
2023/07/02 09:09:03;;;;;;;;;;;;;;;27.99;40.13;99972.34;5073843;28;1090;-36
2023/07/02 09:11:28;;;;;;;;;;;;;;;28.02;40.43;99976.53;5057932;28;1241;-34
2023/07/02 09:13:58;;;;;;;;;;;;;;;27.96;40.57;99974.66;5057225;28;1099;-35
2023/07/02 09:16:28;;;;;;;;;;;;;;;27.93;40.44;99980.47;5058443;28;1124;-34
2023/07/02 09:19:07;;;;;;;;;;;;;;;27.95;40.22;99973.81;5058724;28;1163;-34
2023/07/02 09:21:40;;;;;;;;;;;;;;;27.80;40.57;99976.72;5058147;28;1906;-33
2023/07/02 09:24:32;;;;;;;;;;;;;;;27.93;41.39;99972.34;5057901;28;866;-32
2023/07/02 09:26:58;;;;;;;;;;;;;;;28.02;40.65;99964.88;5057362;28;1737;-35
2023/07/02 09:29:30;;;;;;;;;;;;;;;27.96;40.82;99961.16;5057988;28;1182;-36
2023/07/02 09:32:00;;;;;;;;;;;;;;;27.95;40.78;99957.59;5058501;28;1051;-34
2023/07/02 09:34:29;;;;;;;;;;;;;;;28.01;40.96;99966.72;5057899;28;1055;-37
2023/07/02 09:36:54;;;;;;;;;;;;;;;28.11;41.31;99969.03;5057854;28;913;-36
2023/07/02 09:39:21;;;;;;;;;;;;;;;28.49;39.85;99964.84;5072939;28;1067;-35
2023/07/02 09:41:48;;;;;;;;;;;;;;;28.11;40.92;99964.44;5058179;28;1914;-33
2023/07/02 09:44:13;;;;;;;;;;;;;;;28.14;40.64;99970.50;5073464;28;1187;-34
2023/07/02 09:46:43;;;;;;;;;;;;;;;27.60;41.09;99955.88;5057821;28;1159;-35
2023/07/02 09:49:10;;;;;;;;;;;;;;;27.46;41.01;99959.63;5054813;28;1115;-29
2023/07/02 09:51:36;;;;;;;;;;;;;;;27.47;41.31;99972.06;5064838;28;1063;-36
2023/07/02 09:54:01;;;;;;;;;;;;;;;27.77;41.08;99971.72;5057516;28;1226;-36
2023/07/02 09:56:27;;;;;;;;;;;;;;;27.99;40.73;99966.94;5073214;28;1149;-34
2023/07/02 09:58:52;;;;;;;;;;;;;;;28.06;40.46;99972.34;5057216;28;1064;-36
2023/07/02 10:01:18;;;;;;;;;;;;;;;27.96;41.37;99961.97;5058075;28;1905;-36
2023/07/02 10:03:43;;;;;;;;;;;;;;;28.01;41.75;99969.44;5072673;28;1254;-35
2023/07/02 10:06:09;;;;;;;;;;;;;;;28.00;42.23;99975.91;5057407;28;1241;-36
2023/07/02 10:08:34;;;;;;;;;;;;;;;28.33;41.62;99972.38;5057174;28;1201;-35
2023/07/02 10:11:09;;;;;;;;;;;;;;;28.29;41.79;99968.41;5057448;28;1155;-36
2023/07/02 10:13:35;;;;;;;;;;;;;;;28.24;41.84;99966.31;5044119;28;1055;-35
2023/07/02 10:16:03;;;;;;;;;;;;;;;28.15;41.66;99967.56;5057517;28;1163;-31
2023/07/02 10:18:29;;;;;;;;;;;;;;;28.12;41.85;99965.28;5057253;28;1133;-34
2023/07/02 10:20:54;;;;;;;;;;;;;;;27.58;42.06;99949.84;5057237;28;1250;-35
2023/07/02 10:23:20;;;;;;;;;;;;;;;27.67;42.31;99960.47;5057073;28;1902;-35
2023/07/02 10:25:45;;;;;;;;;;;;;;;28.11;41.18;99964.44;5055876;28;1210;-34
2023/07/02 10:28:14;;;;;;;;;;;;;;;28.13;41.03;99955.31;5057237;28;1257;-32
2023/07/02 10:30:40;;;;;;;;;;;;;;;28.05;41.34;99935.56;5056912;28;1177;-30
2023/07/02 10:33:12;;;;;;;;;;;;;;;27.72;42.68;99947.19;5072129;28;1274;-35
2023/07/02 10:35:38;;;;;;;;;;;;;;;27.93;42.22;99948.88;5056587;28;1162;-33
2023/07/02 10:38:06;;;;;;;;;;;;;;;28.00;41.76;99948.88;5057191;28;1175;-32
2023/07/02 10:40:33;;;;;;;;;;;;;;;28.18;41.95;99940.09;5056997;28;1218;-35
2023/07/02 10:42:58;;;;;;;;;;;;;;;28.23;42.39;99945.72;5057076;28;1902;-35
2023/07/02 10:45:30;;;;;;;;;;;;;;;28.22;42.72;99938.66;5056504;28;1047;-34
2023/07/02 10:47:56;;;;;;;;;;;;;;;28.60;41.50;99942.56;5056686;28;1194;-34
2023/07/02 10:50:23;;;;;;;;;;;;;;;28.76;41.19;99940.41;5055604;28;1191;-32
2023/07/02 10:52:51;;;;;;;;;;;;;;;28.90;40.75;99933.06;5056439;28;1165;-35
2023/07/02 10:55:20;;;;;;;;;;;;;;;28.39;42.82;99924.72;5056706;28;1182;-31
2023/07/02 10:57:45;;;;;;;;;;;;;;;28.14;42.75;99925.38;5072497;28;1031;-38
2023/07/02 11:00:11;;;;;;;;;;;;;;;28.02;42.67;99913.50;5056301;28;1109;-37
2023/07/02 11:02:37;;;;;;;;;;;;;;;27.61;43.61;99927.81;5056552;28;1897;-38
2023/07/02 11:05:03;;;;;;;;;;;;;;;27.61;43.96;99924.31;5056425;28;1170;-38
2023/07/02 11:07:28;;;;;;;;;;;;;;;27.83;43.78;99927.66;5056232;28;1047;-37
2023/07/02 11:09:54;;;;;;;;;;;;;;;27.77;43.60;99923.09;5056226;28;1087;-38
2023/07/02 11:12:27;;;;;;;;;;;;;;;27.89;42.46;99919.75;5056190;28;1151;-36
2023/07/02 11:14:52;;;;;;;;;;;;;;;27.77;42.21;99920.38;5056411;28;1090;-37
2023/07/02 11:17:24;;;;;;;;;;;;;;;27.83;41.79;99921.41;5056032;28;1051;-37
2023/07/02 11:19:50;;;;;;;;;;;;;;;27.66;42.08;99918.28;5056371;28;1151;-36
2023/07/02 11:22:15;;;;;;;;;;;;;;;27.78;41.59;99918.53;5056383;28;1914;-37
2023/07/02 11:24:41;;;;;;;;;;;;;;;27.79;41.36;99910.22;5055905;28;1137;-36
2023/07/02 11:27:06;;;;;;;;;;;;;;;27.59;41.74;99919.09;5056024;28;1095;-39
2023/07/02 11:29:32;;;;;;;;;;;;;;;27.35;42.71;99909.72;5056183;28;1134;-37
2023/07/02 11:32:04;;;;;;;;;;;;;;;27.51;42.67;99911.19;5056222;28;1167;-38
2023/07/02 11:34:30;;;;;;;;;;;;;;;27.70;42.73;99914.97;5056184;28;1090;-40
2023/07/02 11:36:55;;;;;;;;;;;;;;;27.61;42.77;99910.81;5055799;28;924;-38
2023/07/02 11:39:21;;;;;;;;;;;;;;;27.69;42.92;99915.19;5055627;28;1047;-38
2023/07/02 11:41:47;;;;;;;;;;;;;;;27.53;43.64;99922.63;5056123;28;1979;-37
2023/07/02 11:44:13;;;;;;;;;;;;;;;27.36;43.69;99916.81;5056320;28;1131;-37
2023/07/02 11:46:38;;;;;;;;;;;;;;;27.43;43.75;99920.31;5071415;28;1019;-37
2023/07/02 11:49:04;;;;;;;;;;;;;;;27.75;43.29;99922.47;5055746;28;1047;-38
2023/07/02 11:51:30;;;;;;;;;;;;;;;27.71;43.43;99919.34;5056407;28;1127;-37
2023/07/02 11:53:56;;;;;;;;;;;;;;;27.78;43.62;99921.22;5055505;28;1132;-37
2023/07/02 11:56:21;;;;;;;;;;;;;;;27.72;43.20;99918.31;5055936;28;1147;-38
2023/07/02 11:58:47;;;;;;;;;;;;;;;27.73;43.40;99916.44;5055314;28;1189;-38
2023/07/02 12:01:12;;;;;;;;;;;;;;;27.69;43.42;99901.69;5057025;28;1906;-37
2023/07/02 12:03:38;;;;;;;;;;;;;;;27.66;43.61;99913.69;5059835;28;1155;-37
2023/07/02 12:06:03;;;;;;;;;;;;;;;27.60;43.79;99909.97;5060111;28;1059;-37
2023/07/02 12:08:29;;;;;;;;;;;;;;;27.58;43.90;99912.03;5059269;28;1158;-37
2023/07/02 12:10:54;;;;;;;;;;;;;;;27.44;44.59;99910.38;5060310;28;1031;-37
2023/07/02 12:13:22;;;;;;;;;;;;;;;27.67;44.23;99918.06;5060032;28;1179;-38
2023/07/02 12:15:49;;;;;;;;;;;;;;;27.46;45.51;99925.31;5064446;28;1103;-37
2023/07/02 12:18:15;;;;;;;;;;;;;;;27.37;45.37;99926.56;5059608;28;1138;-35
2023/07/02 12:20:40;;;;;;;;;;;;;;;26.83;45.07;99845.41;5058166;28;1138;-37
2023/07/02 12:23:06;;;;;;;;;;;;;;;27.47;44.73;99918.88;5059725;28;1977;-37
2023/07/02 12:25:31;;;;;;;;;;;;;;;27.74;43.83;99912.69;5059077;28;1480;-39
2023/07/02 12:27:57;;;;;;;;;;;;;;;27.72;43.08;99907.50;5059049;28;1524;-37
2023/07/02 12:30:22;;;;;;;;;;;;;;;27.82;42.49;99914.34;5059338;28;1556;-37
2023/07/02 12:32:48;;;;;;;;;;;;;;;27.92;42.12;99927.44;5059776;28;1547;-37
2023/07/02 12:35:13;;;;;;;;;;;;;;;27.74;42.73;99912.69;5057812;28;1504;-38
2023/07/02 12:37:45;;;;;;;;;;;;;;;27.55;42.97;99915.16;5059143;28;1270;-38
2023/07/02 12:40:11;;;;;;;;;;;;;;;27.47;43.88;99916.19;5059073;28;1472;-37
2023/07/02 12:42:36;;;;;;;;;;;;;;;27.49;44.00;99918.69;5046632;28;1910;-38
2023/07/02 12:45:02;;;;;;;;;;;;;;;27.68;43.57;99916.19;5059022;28;1063;-37
2023/07/02 12:47:28;;;;;;;;;;;;;;;27.69;43.55;99916.03;5074830;28;1075;-37
2023/07/02 12:49:53;;;;;;;;;;;;;;;27.75;43.02;99915.19;5058987;28;886;-37
2023/07/02 12:52:18;;;;;;;;;;;;;;;27.56;43.54;99916.81;5058817;28;1120;-40